createdAt,value
2019-02-17T00:01:48.139Z,4.14
2019-02-17T00:02:48.141Z,4.09
2019-02-17T00:04:41.041Z,4.11
2019-02-17T00:05:41.043Z,4.15
2019-02-17T00:07:33.937Z,4.08
2019-02-17T00:08:33.945Z,4.15
2019-02-17T00:10:26.847Z,4.08
2019-02-17T00:11:26.850Z,4.11
2019-02-17T00:13:19.742Z,4.14
2019-02-17T00:14:19.752Z,4.12
2019-02-17T00:16:12.654Z,4.14
2019-02-17T00:17:12.659Z,4.06
2019-02-17T00:19:05.560Z,4.14
2019-02-17T00:20:07.984Z,4.18
2019-02-17T00:21:58.471Z,4.16
2019-02-17T00:22:58.474Z,4.24
2019-02-17T00:24:51.366Z,4.24
2019-02-17T00:25:51.374Z,4.14
2019-02-17T00:27:44.279Z,4.09
2019-02-17T00:28:44.281Z,4.11
2019-02-17T00:30:37.194Z,4.06
2019-02-17T00:31:37.184Z,4.09
2019-02-17T00:33:30.080Z,4.15
2019-02-17T00:34:30.087Z,4.14
2019-02-17T00:36:22.983Z,4.02
2019-02-17T00:37:22.988Z,4.09
2019-02-17T00:39:15.879Z,3.98
2019-02-17T00:40:15.889Z,4.05
2019-02-17T00:42:08.789Z,3.97
2019-02-17T00:43:08.795Z,3.93
2019-02-17T00:45:01.691Z,3.97
2019-02-17T00:46:01.697Z,3.97
2019-02-17T00:47:54.600Z,3.91
2019-02-17T00:48:54.597Z,4.04
2019-02-17T00:50:47.500Z,3.94
2019-02-17T00:51:47.503Z,3.94
2019-02-17T00:53:40.404Z,3.91
2019-02-17T00:54:40.415Z,3.97
2019-02-17T00:56:33.322Z,3.96
2019-02-17T00:57:33.320Z,3.94
2019-02-17T00:59:26.217Z,3.91
2019-02-17T01:00:26.222Z,3.90
2019-02-17T01:02:19.123Z,3.86
2019-02-17T01:03:19.126Z,3.88
2019-02-17T01:05:12.016Z,3.88
2019-02-17T01:06:12.029Z,3.87
2019-02-17T01:08:04.928Z,3.86
2019-02-17T01:09:04.930Z,3.83
2019-02-17T01:10:57.830Z,3.90
2019-02-17T01:11:57.834Z,3.93
2019-02-17T01:13:50.751Z,3.88
2019-02-17T01:14:50.754Z,3.93
2019-02-17T01:16:43.655Z,3.86
2019-02-17T01:17:43.658Z,3.86
2019-02-17T01:19:36.559Z,3.87
2019-02-17T01:20:36.568Z,3.87
2019-02-17T01:22:29.472Z,3.88
2019-02-17T01:23:29.472Z,3.79
2019-02-17T01:25:22.362Z,3.83
2019-02-17T01:26:22.370Z,3.75
2019-02-17T01:28:15.269Z,3.73
2019-02-17T01:29:20.432Z,3.69
2019-02-17T01:31:08.571Z,3.72
2019-02-17T01:32:08.181Z,3.72
2019-02-17T01:34:01.600Z,3.65
2019-02-17T01:35:01.605Z,3.61
2019-02-17T01:36:54.505Z,3.55
2019-02-17T01:37:54.503Z,3.51
2019-02-17T01:39:47.398Z,3.54
2019-02-17T01:40:47.407Z,3.55
2019-02-17T01:42:40.306Z,3.50
2019-02-17T01:43:40.308Z,3.58
2019-02-17T01:45:33.205Z,3.54
2019-02-17T01:46:33.212Z,3.51
2019-02-17T01:48:26.108Z,3.52
2019-02-17T01:49:26.109Z,3.51
2019-02-17T01:51:19.000Z,3.52
2019-02-17T01:52:19.009Z,3.57
2019-02-17T01:54:11.911Z,3.43
2019-02-17T01:55:11.914Z,3.50
2019-02-17T01:57:04.812Z,3.62
2019-02-17T01:58:04.815Z,3.47
2019-02-17T01:59:57.705Z,3.54
2019-02-17T02:00:57.716Z,3.48
2019-02-17T02:02:50.677Z,3.60
2019-02-17T02:03:50.613Z,3.62
2019-02-17T02:05:43.505Z,3.68
2019-02-17T02:06:43.517Z,3.68
2019-02-17T02:08:36.455Z,3.60
2019-02-17T02:09:36.417Z,3.54
2019-02-17T02:11:29.315Z,3.51
2019-02-17T02:12:29.319Z,3.57
2019-02-17T02:14:22.225Z,3.54
2019-02-17T02:15:22.221Z,3.58
2019-02-17T02:17:15.121Z,3.50
2019-02-17T02:18:15.123Z,3.48
2019-02-17T02:20:08.026Z,3.43
2019-02-17T02:21:08.021Z,3.50
2019-02-17T02:23:00.923Z,3.54
2019-02-17T02:24:00.923Z,3.48
2019-02-17T02:25:53.813Z,3.43
2019-02-17T02:26:53.825Z,3.35
2019-02-17T02:28:47.230Z,3.45
2019-02-17T02:29:47.230Z,3.43
2019-02-17T02:31:40.118Z,3.45
2019-02-17T02:32:40.128Z,3.39
2019-02-17T02:34:33.028Z,3.36
2019-02-17T02:35:33.034Z,3.42
2019-02-17T02:37:25.930Z,3.43
2019-02-17T02:38:25.932Z,3.43
2019-02-17T02:40:18.829Z,3.42
2019-02-17T02:41:18.836Z,3.45
2019-02-17T02:43:11.744Z,3.48
2019-02-17T02:44:11.735Z,3.54
2019-02-17T02:46:04.694Z,3.48
2019-02-17T02:47:04.636Z,3.42
2019-02-17T02:48:57.539Z,3.43
2019-02-17T02:49:57.538Z,3.40
2019-02-17T02:51:50.427Z,3.55
2019-02-17T02:52:50.439Z,3.48
2019-02-17T02:54:43.341Z,3.45
2019-02-17T02:55:43.342Z,3.45
2019-02-17T02:57:36.511Z,3.40
2019-02-17T02:58:36.243Z,3.31
2019-02-17T03:00:29.142Z,3.31
2019-02-17T03:01:29.145Z,3.32
2019-02-17T03:03:22.045Z,3.33
2019-02-17T03:04:22.045Z,3.31
2019-02-17T03:06:14.941Z,3.31
2019-02-17T03:07:14.949Z,3.33
2019-02-17T03:09:07.848Z,3.33
2019-02-17T03:10:07.863Z,3.33
2019-02-17T03:12:00.738Z,3.24
2019-02-17T03:13:00.747Z,3.14
2019-02-17T03:14:53.646Z,3.24
2019-02-17T03:15:53.648Z,3.24
2019-02-17T03:17:46.540Z,3.31
2019-02-17T03:18:46.552Z,3.29
2019-02-17T03:20:39.444Z,3.40
2019-02-17T03:21:39.447Z,3.39
2019-02-17T03:23:32.366Z,3.36
2019-02-17T03:24:32.367Z,3.43
2019-02-17T03:26:25.261Z,3.48
2019-02-17T03:27:25.273Z,3.43
2019-02-17T03:29:18.171Z,3.40
2019-02-17T03:30:18.170Z,3.47
2019-02-17T03:32:11.073Z,3.45
2019-02-17T03:33:11.068Z,3.40
2019-02-17T03:35:03.974Z,3.47
2019-02-17T03:36:03.972Z,3.48
2019-02-17T03:37:56.897Z,3.45
2019-02-17T03:38:56.871Z,3.39
2019-02-17T03:40:49.770Z,3.42
2019-02-17T03:41:49.781Z,3.39
2019-02-17T03:43:42.676Z,3.39
2019-02-17T03:44:42.677Z,3.26
2019-02-17T03:46:35.570Z,3.35
2019-02-17T03:47:35.590Z,3.36
2019-02-17T03:49:28.478Z,3.39
2019-02-17T03:50:28.482Z,3.26
2019-02-17T03:52:21.375Z,3.29
2019-02-17T03:53:21.449Z,3.23
2019-02-17T03:55:14.284Z,3.26
2019-02-17T03:56:14.284Z,3.32
2019-02-17T03:58:07.184Z,3.31
2019-02-17T03:59:07.190Z,3.28
2019-02-17T04:01:00.077Z,3.24
2019-02-17T04:02:00.086Z,3.32
2019-02-17T04:03:52.989Z,3.32
2019-02-17T04:04:53.001Z,3.24
2019-02-17T04:06:45.890Z,3.26
2019-02-17T04:07:45.898Z,3.14
2019-02-17T04:09:38.812Z,3.20
2019-02-17T04:10:38.800Z,3.18
2019-02-17T04:12:31.692Z,3.17
2019-02-17T04:13:31.702Z,3.21
2019-02-17T04:15:24.605Z,3.21
2019-02-17T04:16:24.611Z,3.26
2019-02-17T04:18:17.503Z,3.31
2019-02-17T04:19:17.510Z,3.15
2019-02-17T04:21:10.412Z,3.15
2019-02-17T04:22:10.415Z,3.13
2019-02-17T04:24:03.317Z,3.17
2019-02-17T04:25:03.315Z,3.17
2019-02-17T04:26:56.211Z,3.13
2019-02-17T04:27:56.223Z,3.17
2019-02-17T04:29:49.120Z,3.14
2019-02-17T04:30:49.120Z,3.11
2019-02-17T04:32:42.006Z,3.26
2019-02-17T04:33:42.016Z,3.14
2019-02-17T04:35:34.915Z,3.21
2019-02-17T04:36:34.923Z,3.23
2019-02-17T04:38:27.840Z,3.18
2019-02-17T04:39:27.818Z,3.13
2019-02-17T04:41:20.731Z,3.15
2019-02-17T04:42:20.722Z,3.18
2019-02-17T04:44:13.617Z,3.11
2019-02-17T04:45:13.622Z,3.15
2019-02-17T04:47:06.515Z,3.03
2019-02-17T04:48:06.540Z,3.00
2019-02-17T04:49:59.419Z,3.08
2019-02-17T04:50:59.422Z,3.08
2019-02-17T04:52:52.316Z,3.08
2019-02-17T04:53:52.343Z,3.05
2019-02-17T04:55:45.227Z,3.06
2019-02-17T04:56:45.221Z,3.00
2019-02-17T04:58:38.114Z,3.13
2019-02-17T04:59:38.117Z,3.00
2019-02-17T05:01:31.023Z,3.03
2019-02-17T05:02:31.023Z,3.08
2019-02-17T05:04:23.927Z,3.00
2019-02-17T05:05:23.921Z,2.97
2019-02-17T05:07:16.819Z,2.92
2019-02-17T05:08:16.826Z,2.97
2019-02-17T05:10:09.729Z,2.97
2019-02-17T05:11:09.777Z,2.96
2019-02-17T05:13:02.630Z,2.97
2019-02-17T05:14:02.640Z,2.97
2019-02-17T05:15:55.553Z,2.97
2019-02-17T05:16:55.546Z,2.93
2019-02-17T05:18:48.437Z,2.96
2019-02-17T05:19:48.447Z,2.97
2019-02-17T05:21:41.349Z,2.97
2019-02-17T05:22:41.349Z,2.82
2019-02-17T05:24:34.269Z,3.02
2019-02-17T05:25:34.256Z,2.99
2019-02-17T05:27:27.142Z,2.99
2019-02-17T05:28:27.166Z,2.96
2019-02-17T05:30:20.052Z,2.92
2019-02-17T05:31:20.058Z,2.89
2019-02-17T05:33:12.946Z,2.89
2019-02-17T05:34:12.962Z,2.95
2019-02-17T05:36:05.862Z,2.95
2019-02-17T05:37:05.856Z,2.89
2019-02-17T05:38:58.750Z,2.95
2019-02-17T05:39:58.757Z,2.87
2019-02-17T05:41:51.659Z,2.89
2019-02-17T05:42:51.656Z,2.93
2019-02-17T05:44:44.568Z,2.90
2019-02-17T05:45:44.570Z,2.92
2019-02-17T05:47:37.464Z,2.87
2019-02-17T05:48:37.470Z,2.92
2019-02-17T05:50:30.385Z,2.96
2019-02-17T05:51:30.390Z,2.85
2019-02-17T05:53:23.280Z,2.96
2019-02-17T05:54:23.285Z,2.85
2019-02-17T05:56:16.188Z,2.92
2019-02-17T05:57:16.188Z,2.81
2019-02-17T05:59:09.081Z,2.84
2019-02-17T06:00:09.090Z,2.75
2019-02-17T06:02:02.083Z,2.79
2019-02-17T06:03:02.004Z,2.72
2019-02-17T06:04:54.913Z,2.77
2019-02-17T06:05:54.916Z,2.74
2019-02-17T06:07:47.813Z,2.79
2019-02-17T06:08:47.817Z,2.78
2019-02-17T06:10:41.728Z,2.78
2019-02-17T06:11:41.732Z,2.77
2019-02-17T06:13:34.619Z,2.85
2019-02-17T06:14:34.624Z,2.81
2019-02-17T06:16:27.529Z,2.82
2019-02-17T06:17:27.532Z,2.82
2019-02-17T06:19:20.428Z,2.87
2019-02-17T06:20:20.440Z,2.81
2019-02-17T06:22:13.335Z,2.84
2019-02-17T06:23:13.333Z,2.82
2019-02-17T06:25:06.239Z,2.78
2019-02-17T06:26:06.239Z,2.82
2019-02-17T06:27:59.131Z,2.77
2019-02-17T06:28:59.135Z,2.74
2019-02-17T06:30:52.036Z,2.75
2019-02-17T06:31:52.037Z,2.79
2019-02-17T06:33:44.932Z,2.82
2019-02-17T06:34:44.940Z,2.74
2019-02-17T06:36:37.835Z,2.77
2019-02-17T06:37:37.835Z,2.71
2019-02-17T06:39:30.731Z,2.75
2019-02-17T06:40:30.738Z,2.72
2019-02-17T06:42:23.640Z,2.77
2019-02-17T06:43:23.640Z,2.77
2019-02-17T06:45:16.542Z,2.69
2019-02-17T06:46:16.539Z,2.74
2019-02-17T06:48:10.436Z,2.61
2019-02-17T06:49:10.441Z,2.69
2019-02-17T06:51:03.340Z,2.72
2019-02-17T06:52:03.354Z,2.74
2019-02-17T06:53:56.229Z,2.78
2019-02-17T06:54:56.235Z,2.77
2019-02-17T06:56:49.135Z,2.82
2019-02-17T06:57:49.133Z,2.74
2019-02-17T06:59:42.025Z,2.87
2019-02-17T07:00:42.051Z,2.81
2019-02-17T07:02:34.928Z,2.93
2019-02-17T07:03:34.930Z,2.96
2019-02-17T07:05:27.824Z,2.89
2019-02-17T07:06:27.833Z,2.93
2019-02-17T07:08:20.725Z,2.96
2019-02-17T07:09:20.725Z,2.93
2019-02-17T07:11:14.138Z,2.92
2019-02-17T07:12:14.118Z,2.99
2019-02-17T07:14:07.008Z,3.00
2019-02-17T07:15:07.018Z,2.96
2019-02-17T07:16:59.915Z,3.00
2019-02-17T07:17:59.916Z,3.11
2019-02-17T07:19:52.805Z,3.08
2019-02-17T07:20:52.815Z,3.13
2019-02-17T07:22:45.715Z,3.17
2019-02-17T07:23:45.715Z,3.14
2019-02-17T07:25:38.607Z,3.24
2019-02-17T07:26:38.616Z,3.26
2019-02-17T07:28:31.512Z,3.23
2019-02-17T07:29:31.514Z,3.26
2019-02-17T07:31:34.375Z,3.32
2019-02-17T07:32:24.416Z,3.45
2019-02-17T07:34:17.320Z,3.47
2019-02-17T07:35:17.326Z,3.58
2019-02-17T07:37:10.224Z,3.66
2019-02-17T07:38:10.224Z,3.58
2019-02-17T07:40:03.118Z,3.70
2019-02-17T07:41:03.126Z,3.73
2019-02-17T07:42:56.027Z,3.79
2019-02-17T07:43:56.028Z,3.83
2019-02-17T07:45:48.918Z,3.86
2019-02-17T07:46:48.927Z,3.87
2019-02-17T07:48:41.849Z,3.87
2019-02-17T07:49:41.852Z,3.96
2019-02-17T07:51:34.743Z,3.94
2019-02-17T07:52:34.750Z,3.93
2019-02-17T07:54:27.657Z,4.11
2019-02-17T07:55:27.656Z,4.09
2019-02-17T07:57:20.558Z,4.09
2019-02-17T07:58:20.563Z,4.05
2019-02-17T08:00:13.458Z,4.20
2019-02-17T08:01:13.466Z,4.16
2019-02-17T08:03:06.364Z,4.27
2019-02-17T08:04:06.365Z,4.33
2019-02-17T08:05:59.267Z,4.50
2019-02-17T08:06:59.276Z,4.48
2019-02-17T08:08:52.176Z,4.54
2019-02-17T08:09:52.177Z,4.59
2019-02-17T08:11:45.071Z,4.55
2019-02-17T08:12:45.080Z,4.59
2019-02-17T08:14:37.985Z,4.72
2019-02-17T08:15:37.980Z,4.69
2019-02-17T08:17:30.921Z,4.72
2019-02-17T08:18:30.886Z,4.82
2019-02-17T08:20:23.777Z,4.80
2019-02-17T08:21:23.787Z,4.75
2019-02-17T08:23:16.693Z,4.88
2019-02-17T08:24:16.687Z,4.92
2019-02-17T08:26:09.582Z,5.03
2019-02-17T08:27:09.593Z,5.06
2019-02-17T08:29:02.496Z,5.07
2019-02-17T08:30:02.497Z,5.09
2019-02-17T08:31:56.273Z,5.22
2019-02-17T08:32:55.402Z,5.15
2019-02-17T08:34:48.325Z,5.22
2019-02-17T08:35:48.312Z,5.27
2019-02-17T08:37:41.211Z,5.38
2019-02-17T08:38:41.210Z,5.27
2019-02-17T08:40:34.115Z,5.45
2019-02-17T08:41:34.117Z,5.63
2019-02-17T08:43:27.015Z,5.64
2019-02-17T08:44:27.020Z,5.74
2019-02-17T08:46:20.125Z,5.79
2019-02-17T08:47:20.005Z,5.85
2019-02-17T08:49:12.944Z,6.00
2019-02-17T08:50:12.920Z,5.93
2019-02-17T08:52:05.810Z,6.01
2019-02-17T08:53:05.815Z,6.18
2019-02-17T08:54:58.716Z,6.22
2019-02-17T08:55:58.732Z,6.19
2019-02-17T08:57:51.613Z,6.27
2019-02-17T08:58:51.625Z,6.31
2019-02-17T09:00:44.525Z,6.48
2019-02-17T09:01:44.530Z,6.62
2019-02-17T09:03:37.516Z,6.70
2019-02-17T09:04:37.459Z,6.71
2019-02-17T09:06:30.352Z,6.77
2019-02-17T09:07:30.363Z,6.81
2019-02-17T09:09:23.265Z,6.79
2019-02-17T09:10:23.298Z,6.88
2019-02-17T09:12:16.164Z,6.97
2019-02-17T09:13:18.408Z,7.09
2019-02-17T09:15:09.078Z,7.12
2019-02-17T09:16:09.081Z,7.07
2019-02-17T09:18:01.976Z,7.09
2019-02-17T09:19:01.988Z,7.15
2019-02-17T09:20:54.889Z,7.34
2019-02-17T09:21:54.893Z,7.31
2019-02-17T09:23:47.830Z,7.42
2019-02-17T09:24:48.006Z,7.49
2019-02-17T09:26:40.699Z,7.61
2019-02-17T09:27:40.776Z,7.69
2019-02-17T09:29:33.627Z,7.79
2019-02-17T09:30:33.622Z,7.67
2019-02-17T09:32:26.520Z,7.93
2019-02-17T09:33:26.528Z,7.89
2019-02-17T09:35:19.436Z,8.05
2019-02-17T09:36:19.438Z,8.05
2019-02-17T09:38:12.337Z,8.12
2019-02-17T09:39:12.351Z,8.23
2019-02-17T09:41:05.285Z,8.20
2019-02-17T09:42:05.287Z,8.37
2019-02-17T09:43:58.217Z,8.37
2019-02-17T09:44:58.207Z,8.41
2019-02-17T09:46:51.153Z,8.45
2019-02-17T09:47:51.117Z,8.47
2019-02-17T09:49:44.006Z,8.52
2019-02-17T09:50:44.009Z,8.53
2019-02-17T09:52:36.957Z,8.61
2019-02-17T09:53:36.976Z,8.68
2019-02-17T09:55:29.880Z,8.84
2019-02-17T09:56:29.902Z,8.86
2019-02-17T09:58:22.787Z,9.01
2019-02-17T09:59:22.790Z,9.05
2019-02-17T10:01:15.757Z,9.18
2019-02-17T10:02:26.053Z,9.13
2019-02-17T10:04:08.640Z,9.21
2019-02-17T10:05:08.646Z,9.23
2019-02-17T10:07:01.551Z,9.35
2019-02-17T10:08:01.560Z,9.43
2019-02-17T10:09:54.954Z,9.48
2019-02-17T10:10:54.961Z,9.50
2019-02-17T10:12:47.859Z,9.61
2019-02-17T10:13:47.991Z,9.53
2019-02-17T10:15:40.820Z,9.57
2019-02-17T10:16:40.792Z,9.61
2019-02-17T10:18:33.774Z,9.78
2019-02-17T10:19:33.695Z,9.86
2019-02-17T10:21:26.604Z,9.93
2019-02-17T10:22:26.610Z,10.11
2019-02-17T10:24:19.533Z,10.12
2019-02-17T10:25:19.524Z,10.17
2019-02-17T10:27:13.436Z,10.30
2019-02-17T10:28:14.092Z,10.40
2019-02-17T10:30:06.862Z,10.52
2019-02-17T10:31:06.869Z,10.59
2019-02-17T10:32:59.770Z,10.68
2019-02-17T10:33:59.780Z,10.60
2019-02-17T10:35:52.685Z,10.79
2019-02-17T10:36:52.688Z,10.79
2019-02-17T10:38:45.588Z,10.86
2019-02-17T10:39:45.602Z,10.94
2019-02-17T10:41:38.507Z,11.07
2019-02-17T10:42:38.512Z,11.07
2019-02-17T10:44:31.411Z,11.15
2019-02-17T10:45:31.426Z,11.19
2019-02-17T10:47:24.337Z,11.32
2019-02-17T10:48:24.336Z,11.39
2019-02-17T10:50:17.245Z,11.51
2019-02-17T10:51:17.251Z,11.43
2019-02-17T10:53:11.171Z,11.54
2019-02-17T10:54:11.260Z,11.58
2019-02-17T10:56:04.093Z,11.76
2019-02-17T10:57:04.097Z,11.75
2019-02-17T10:58:56.994Z,11.85
2019-02-17T10:59:57.011Z,11.88
2019-02-17T11:01:49.921Z,11.85
2019-02-17T11:02:49.930Z,11.85
2019-02-17T11:04:42.826Z,11.86
2019-02-17T11:05:42.840Z,11.96
2019-02-17T11:07:35.748Z,12.04
2019-02-17T11:08:35.754Z,12.01
2019-02-17T11:10:28.674Z,12.14
2019-02-17T11:11:28.672Z,12.24
2019-02-17T11:13:21.578Z,12.28
2019-02-17T11:14:21.585Z,12.37
2019-02-17T11:16:14.492Z,12.46
2019-02-17T11:17:14.499Z,12.54
2019-02-17T11:19:07.398Z,12.65
2019-02-17T11:20:07.413Z,12.64
2019-02-17T11:22:00.321Z,12.75
2019-02-17T11:23:00.331Z,12.79
2019-02-17T11:24:53.237Z,12.83
2019-02-17T11:25:53.243Z,12.83
2019-02-17T11:27:46.164Z,12.96
2019-02-17T11:28:46.156Z,12.95
2019-02-17T11:30:39.065Z,12.89
2019-02-17T11:31:39.071Z,13.05
2019-02-17T11:33:31.971Z,13.03
2019-02-17T11:34:31.986Z,13.04
2019-02-17T11:36:24.899Z,13.03
2019-02-17T11:37:24.902Z,13.12
2019-02-17T11:39:17.802Z,13.17
2019-02-17T11:40:17.819Z,13.19
2019-02-17T11:42:10.729Z,13.22
2019-02-17T11:43:10.734Z,13.22
2019-02-17T11:45:03.638Z,13.28
2019-02-17T11:46:03.652Z,13.33
2019-02-17T11:47:56.561Z,13.46
2019-02-17T11:48:56.569Z,13.36
2019-02-17T11:50:49.477Z,13.48
2019-02-17T11:51:49.490Z,13.59
2019-02-17T11:53:42.388Z,13.70
2019-02-17T11:54:42.401Z,13.66
2019-02-17T11:56:35.315Z,13.79
2019-02-17T11:57:35.320Z,13.71
2019-02-17T11:59:28.220Z,13.88
2019-02-17T12:00:28.235Z,13.89
2019-02-17T12:02:24.874Z,14.02
2019-02-17T12:03:21.646Z,14.04
2019-02-17T12:05:14.550Z,14.03
2019-02-17T12:06:14.565Z,14.02
2019-02-17T12:08:07.475Z,14.09
2019-02-17T12:09:07.483Z,14.17
2019-02-17T12:11:01.304Z,14.22
2019-02-17T12:12:00.403Z,14.21
2019-02-17T12:13:53.310Z,14.27
2019-02-17T12:14:53.322Z,14.21
2019-02-17T12:16:46.235Z,14.27
2019-02-17T12:17:46.244Z,14.29
2019-02-17T12:19:39.142Z,14.27
2019-02-17T12:20:39.157Z,14.36
2019-02-17T12:22:32.070Z,14.45
2019-02-17T12:23:32.075Z,14.50
2019-02-17T12:25:24.988Z,14.47
2019-02-17T12:26:25.003Z,14.46
2019-02-17T12:28:17.909Z,14.51
2019-02-17T12:29:17.914Z,14.57
2019-02-17T12:31:10.827Z,14.69
2019-02-17T12:32:10.840Z,14.65
2019-02-17T12:34:03.738Z,14.72
2019-02-17T12:35:03.754Z,14.70
2019-02-17T12:36:56.669Z,14.84
2019-02-17T12:37:56.674Z,14.81
2019-02-17T12:39:49.582Z,14.94
2019-02-17T12:40:49.599Z,14.91
2019-02-17T12:42:42.505Z,15.02
2019-02-17T12:43:42.515Z,14.96
2019-02-17T12:45:35.418Z,15.10
2019-02-17T12:46:35.436Z,15.03
2019-02-17T12:48:28.349Z,15.17
2019-02-17T12:49:28.356Z,15.16
2019-02-17T12:51:21.260Z,15.32
2019-02-17T12:52:21.275Z,15.34
2019-02-17T12:54:14.186Z,15.43
2019-02-17T12:55:14.193Z,15.39
2019-02-17T12:57:07.108Z,15.41
2019-02-17T12:58:07.116Z,15.51
2019-02-17T13:00:00.024Z,15.49
2019-02-17T13:01:00.038Z,15.54
2019-02-17T13:02:52.950Z,15.59
2019-02-17T13:03:52.958Z,15.62
2019-02-17T13:05:45.862Z,15.59
2019-02-17T13:06:45.883Z,15.68
2019-02-17T13:08:38.792Z,15.76
2019-02-17T13:09:38.798Z,15.72
2019-02-17T13:11:31.704Z,15.72
2019-02-17T13:12:31.717Z,15.74
2019-02-17T13:14:24.633Z,15.83
2019-02-17T13:15:24.642Z,15.82
2019-02-17T13:17:17.567Z,15.80
2019-02-17T13:18:17.562Z,15.75
2019-02-17T13:20:10.470Z,15.83
2019-02-17T13:21:10.484Z,15.78
2019-02-17T13:23:03.398Z,15.94
2019-02-17T13:24:03.407Z,16.00
2019-02-17T13:25:56.314Z,16.02
2019-02-17T13:26:56.331Z,16.00
2019-02-17T13:28:49.244Z,16.09
2019-02-17T13:29:49.251Z,16.01
2019-02-17T13:31:42.157Z,16.09
2019-02-17T13:32:42.172Z,16.14
2019-02-17T13:34:35.088Z,16.15
2019-02-17T13:35:35.097Z,16.14
2019-02-17T13:37:30.200Z,16.21
2019-02-17T13:38:28.021Z,16.23
2019-02-17T13:40:20.929Z,16.15
2019-02-17T13:41:20.939Z,16.20
2019-02-17T13:43:13.867Z,16.17
2019-02-17T13:44:13.862Z,16.21
2019-02-17T13:46:06.772Z,16.21
2019-02-17T13:47:06.786Z,16.24
2019-02-17T13:48:59.708Z,16.24
2019-02-17T13:49:59.708Z,16.25
2019-02-17T13:51:52.614Z,16.15
2019-02-17T13:52:52.629Z,16.33
2019-02-17T13:54:45.557Z,16.34
2019-02-17T13:55:45.571Z,16.24
2019-02-17T13:57:38.956Z,16.25
2019-02-17T13:58:38.973Z,16.39
2019-02-17T14:00:31.905Z,16.34
2019-02-17T14:01:31.914Z,16.30
2019-02-17T14:03:25.379Z,16.41
2019-02-17T14:04:24.836Z,16.38
2019-02-17T14:06:18.261Z,16.46
2019-02-17T14:07:18.272Z,16.46
2019-02-17T14:09:11.225Z,16.43
2019-02-17T14:10:11.223Z,16.41
2019-02-17T14:12:04.165Z,16.53
2019-02-17T14:13:04.250Z,16.45
2019-02-17T14:14:57.068Z,16.45
2019-02-17T14:15:57.068Z,16.46
2019-02-17T14:17:49.997Z,16.52
2019-02-17T14:18:49.995Z,16.45
2019-02-17T14:20:42.915Z,16.61
2019-02-17T14:21:42.911Z,16.57
2019-02-17T14:23:35.857Z,16.73
2019-02-17T14:24:35.854Z,16.68
2019-02-17T14:26:28.763Z,16.70
2019-02-17T14:27:29.093Z,16.64
2019-02-17T14:29:21.694Z,16.64
2019-02-17T14:30:21.702Z,16.67
2019-02-17T14:32:14.609Z,16.67
2019-02-17T14:33:14.628Z,16.68
2019-02-17T14:35:07.618Z,16.71
2019-02-17T14:36:07.551Z,16.68
2019-02-17T14:38:00.924Z,16.63
2019-02-17T14:39:00.474Z,16.64
2019-02-17T14:40:53.389Z,16.66
2019-02-17T14:41:53.401Z,16.60
2019-02-17T14:43:46.354Z,16.66
2019-02-17T14:44:46.337Z,16.58
2019-02-17T14:46:39.234Z,16.57
2019-02-17T14:47:39.250Z,16.64
2019-02-17T14:49:32.165Z,16.61
2019-02-17T14:50:32.171Z,16.66
2019-02-17T14:52:25.120Z,16.61
2019-02-17T14:53:25.137Z,16.73
2019-02-17T14:55:18.050Z,16.64
2019-02-17T14:56:18.065Z,16.60
2019-02-17T14:58:10.969Z,16.60
2019-02-17T14:59:11.017Z,16.66
2019-02-17T15:01:03.899Z,16.64
2019-02-17T15:02:03.911Z,16.58
2019-02-17T15:03:56.829Z,16.58
2019-02-17T15:04:56.877Z,16.53
2019-02-17T15:06:49.786Z,16.52
2019-02-17T15:07:49.805Z,16.56
2019-02-17T15:09:42.718Z,16.52
2019-02-17T15:10:42.745Z,16.50
2019-02-17T15:12:35.671Z,16.48
2019-02-17T15:13:35.685Z,16.49
2019-02-17T15:15:28.599Z,16.42
2019-02-17T15:16:28.607Z,16.50
2019-02-17T15:18:21.536Z,16.41
2019-02-17T15:19:21.542Z,16.41
2019-02-17T15:21:14.522Z,16.39
2019-02-17T15:22:14.478Z,16.46
2019-02-17T15:24:08.016Z,16.38
2019-02-17T15:25:07.626Z,16.46
2019-02-17T15:27:00.317Z,16.39
2019-02-17T15:28:00.340Z,16.43
2019-02-17T15:29:53.388Z,16.42
2019-02-17T15:30:53.252Z,16.43
2019-02-17T15:32:46.156Z,16.45
2019-02-17T15:33:46.174Z,16.35
2019-02-17T15:35:39.127Z,16.39
2019-02-17T15:36:39.096Z,16.38
2019-02-17T15:38:32.002Z,16.21
2019-02-17T15:39:32.069Z,16.24
2019-02-17T15:41:24.932Z,16.25
2019-02-17T15:42:24.942Z,16.21
2019-02-17T15:44:17.861Z,16.09
2019-02-17T15:45:17.880Z,16.09
2019-02-17T15:47:10.798Z,16.05
2019-02-17T15:48:10.799Z,16.00
2019-02-17T15:50:03.706Z,15.93
2019-02-17T15:51:06.412Z,15.90
2019-02-17T15:52:56.721Z,15.84
2019-02-17T15:53:56.745Z,15.86
2019-02-17T15:55:49.639Z,15.90
2019-02-17T15:56:49.650Z,15.82
2019-02-17T15:58:42.559Z,15.78
2019-02-17T15:59:42.573Z,15.75
2019-02-17T16:01:35.485Z,15.71
2019-02-17T16:02:35.587Z,15.68
2019-02-17T16:04:28.908Z,15.72
2019-02-17T16:05:28.412Z,15.68
2019-02-17T16:07:21.332Z,15.60
2019-02-17T16:08:21.341Z,15.57
2019-02-17T16:10:14.254Z,15.46
2019-02-17T16:11:14.352Z,15.51
2019-02-17T16:13:07.201Z,15.35
2019-02-17T16:14:07.253Z,15.39
2019-02-17T16:16:00.172Z,15.43
2019-02-17T16:17:00.161Z,15.31
2019-02-17T16:18:53.104Z,15.23
2019-02-17T16:19:53.039Z,15.20
2019-02-17T16:21:46.042Z,15.13
2019-02-17T16:22:46.074Z,14.99
2019-02-17T16:24:38.946Z,14.98
2019-02-17T16:25:38.940Z,14.92
2019-02-17T16:27:31.980Z,14.81
2019-02-17T16:28:31.905Z,14.77
2019-02-17T16:30:24.835Z,14.70
2019-02-17T16:31:24.809Z,14.61
2019-02-17T16:33:17.760Z,14.54
2019-02-17T16:34:17.726Z,14.47
2019-02-17T16:36:10.644Z,14.32
2019-02-17T16:37:10.731Z,14.43
2019-02-17T16:39:03.572Z,14.21
2019-02-17T16:40:03.583Z,14.18
2019-02-17T16:41:56.508Z,14.10
2019-02-17T16:42:56.516Z,14.03
2019-02-17T16:44:49.410Z,13.97
2019-02-17T16:45:49.423Z,13.92
2019-02-17T16:47:42.339Z,13.88
2019-02-17T16:48:42.368Z,13.77
2019-02-17T16:50:35.815Z,13.75
2019-02-17T16:51:35.831Z,13.73
2019-02-17T16:53:28.694Z,13.54
2019-02-17T16:54:28.703Z,13.55
2019-02-17T16:56:21.618Z,13.45
2019-02-17T16:57:21.652Z,13.38
2019-02-17T16:59:14.534Z,13.23
2019-02-17T17:00:14.542Z,13.12
2019-02-17T17:02:07.450Z,13.03
2019-02-17T17:03:07.462Z,13.05
2019-02-17T17:05:00.928Z,12.87
2019-02-17T17:06:00.887Z,12.86
2019-02-17T17:07:53.799Z,12.72
2019-02-17T17:08:53.805Z,12.62
2019-02-17T17:10:46.726Z,12.60
2019-02-17T17:11:46.745Z,12.47
2019-02-17T17:13:39.659Z,12.49
2019-02-17T17:14:39.663Z,12.47
2019-02-17T17:16:32.594Z,12.29
2019-02-17T17:17:32.585Z,12.19
2019-02-17T17:19:25.983Z,12.27
2019-02-17T17:20:26.020Z,12.14
2019-02-17T17:22:18.892Z,12.20
2019-02-17T17:23:18.906Z,12.19
2019-02-17T17:25:11.819Z,12.12
2019-02-17T17:26:11.824Z,12.01
2019-02-17T17:28:04.757Z,12.05
2019-02-17T17:29:04.747Z,12.01
2019-02-17T17:30:57.681Z,11.86
2019-02-17T17:31:57.696Z,11.90
2019-02-17T17:33:50.641Z,11.88
2019-02-17T17:34:58.577Z,11.75
2019-02-17T17:36:43.514Z,11.72
2019-02-17T17:37:43.523Z,11.67
2019-02-17T17:39:36.557Z,11.57
2019-02-17T17:40:36.474Z,11.60
2019-02-17T17:42:29.337Z,11.46
2019-02-17T17:43:29.348Z,11.37
2019-02-17T17:45:22.293Z,11.46
2019-02-17T17:46:22.294Z,11.49
2019-02-17T17:48:15.207Z,11.37
2019-02-17T17:49:19.337Z,11.39
2019-02-17T17:51:08.112Z,11.24
2019-02-17T17:52:08.127Z,11.21
2019-02-17T17:54:01.033Z,11.14
2019-02-17T17:55:01.040Z,11.19
2019-02-17T17:56:53.941Z,11.09
2019-02-17T17:57:53.954Z,11.00
2019-02-17T17:59:46.863Z,10.99
2019-02-17T18:00:46.973Z,10.97
2019-02-17T18:02:39.775Z,10.88
2019-02-17T18:03:39.784Z,10.91
2019-02-17T18:05:32.792Z,10.91
2019-02-17T18:06:32.729Z,10.89
2019-02-17T18:08:25.605Z,10.86
2019-02-17T18:09:25.626Z,10.79
2019-02-17T18:11:19.067Z,10.76
2019-02-17T18:12:18.522Z,10.76
2019-02-17T18:14:11.432Z,10.70
2019-02-17T18:15:11.433Z,10.70
2019-02-17T18:17:04.337Z,10.59
2019-02-17T18:18:04.347Z,10.67
2019-02-17T18:19:57.258Z,10.55
2019-02-17T18:20:57.264Z,10.45
2019-02-17T18:22:50.170Z,10.36
2019-02-17T18:23:50.183Z,10.40
2019-02-17T18:25:43.088Z,10.36
2019-02-17T18:26:43.095Z,10.32
2019-02-17T18:28:36.010Z,10.38
2019-02-17T18:29:36.008Z,10.26
2019-02-17T18:31:28.909Z,10.33
2019-02-17T18:32:28.921Z,10.32
2019-02-17T18:34:21.831Z,10.25
2019-02-17T18:35:21.836Z,10.25
2019-02-17T18:37:14.736Z,10.33
2019-02-17T18:38:14.753Z,10.29
2019-02-17T18:40:07.729Z,10.29
2019-02-17T18:41:07.701Z,10.25
2019-02-17T18:43:00.641Z,10.18
2019-02-17T18:44:00.653Z,10.17
2019-02-17T18:45:53.483Z,10.07
2019-02-17T18:46:53.490Z,10.09
2019-02-17T18:48:46.409Z,10.04
2019-02-17T18:49:46.408Z,10.05
2019-02-17T18:51:41.658Z,9.99
2019-02-17T18:52:39.318Z,9.96
2019-02-17T18:54:32.225Z,9.96